createdAt,value
2022-10-13T00:00:59.728Z,7.03
2022-10-13T00:04:02.491Z,6.75
2022-10-13T00:07:05.049Z,7.00
2022-10-13T00:10:10.188Z,6.72
2022-10-13T00:13:13.177Z,6.60
2022-10-13T00:16:18.418Z,6.70
2022-10-13T00:19:21.164Z,7.20
2022-10-13T00:22:24.117Z,6.95
2022-10-13T00:25:27.015Z,7.62
2022-10-13T00:28:30.021Z,7.12
2022-10-13T00:31:33.016Z,7.70
2022-10-13T00:34:37.704Z,7.80
2022-10-13T00:37:40.270Z,8.38
2022-10-13T00:40:50.137Z,7.82
2022-10-13T00:44:03.228Z,7.65
2022-10-13T00:47:06.143Z,8.50
2022-10-13T00:50:12.695Z,9.18
2022-10-13T00:53:17.034Z,8.45
2022-10-13T00:56:21.390Z,9.02
2022-10-13T00:59:29.082Z,9.20
2022-10-13T01:02:33.118Z,11.27
2022-10-13T01:05:39.461Z,11.30
2022-10-13T01:08:42.023Z,11.70
2022-10-13T01:11:51.371Z,13.23
2022-10-13T01:15:04.009Z,14.65
2022-10-13T01:18:25.714Z,13.70
2022-10-13T01:21:33.717Z,13.93
2022-10-13T01:24:51.795Z,11.10
2022-10-13T01:28:13.692Z,10.18
2022-10-13T01:31:24.504Z,9.50
2022-10-13T01:34:32.013Z,10.13
2022-10-13T01:37:50.537Z,8.65
2022-10-13T01:41:14.628Z,9.43
2022-10-13T01:44:22.653Z,9.98
2022-10-13T01:47:27.806Z,9.43
2022-10-13T01:50:32.857Z,9.03
2022-10-13T01:53:36.275Z,8.55
2022-10-13T01:56:39.167Z,7.43
2022-10-13T01:59:41.685Z,7.50
2022-10-13T02:03:06.611Z,7.97
2022-10-13T02:06:44.899Z,5.97
2022-10-13T02:09:50.456Z,5.70
2022-10-13T02:13:05.605Z,5.60
2022-10-13T02:16:08.231Z,6.40
2022-10-13T02:19:14.485Z,5.15
2022-10-13T02:22:19.807Z,4.73
2022-10-13T02:25:23.076Z,4.72
2022-10-13T02:28:28.112Z,4.22
2022-10-13T02:31:31.004Z,4.75
2022-10-13T02:34:33.629Z,4.53
2022-10-13T02:37:36.529Z,5.20
2022-10-13T02:40:39.110Z,4.90
2022-10-13T02:43:42.207Z,4.32
2022-10-13T02:46:44.774Z,4.65
2022-10-13T02:49:47.766Z,5.35
2022-10-13T02:52:50.370Z,6.00
2022-10-13T02:55:55.611Z,7.53
2022-10-13T02:59:01.089Z,7.37
2022-10-13T03:02:03.859Z,7.07
2022-10-13T03:05:07.643Z,7.37
2022-10-13T03:08:10.504Z,6.17
2022-10-13T03:11:13.135Z,5.78
2022-10-13T03:14:15.883Z,5.60
2022-10-13T03:17:18.526Z,5.95
2022-10-13T03:20:21.410Z,5.20
2022-10-13T03:23:24.021Z,5.20
2022-10-13T03:26:26.815Z,4.75
2022-10-13T03:29:29.544Z,5.22
2022-10-13T03:32:32.478Z,5.57
2022-10-13T03:35:35.040Z,6.15
2022-10-13T03:38:37.825Z,5.57
2022-10-13T03:41:40.373Z,6.20
2022-10-13T03:44:43.278Z,5.75
2022-10-13T03:47:45.819Z,5.97
2022-10-13T03:50:48.822Z,5.68
2022-10-13T03:53:52.580Z,5.67
2022-10-13T03:56:55.653Z,5.90
2022-10-13T03:59:58.365Z,5.62
2022-10-13T04:03:02.386Z,5.60
2022-10-13T04:06:06.293Z,6.07
2022-10-13T04:09:09.561Z,5.20
2022-10-13T04:12:13.609Z,5.90
2022-10-13T04:15:18.557Z,6.05
2022-10-13T04:18:21.491Z,6.28
2022-10-13T04:21:25.298Z,6.70
2022-10-13T04:24:28.580Z,6.70
2022-10-13T04:27:31.031Z,6.25
2022-10-13T04:30:35.038Z,5.07
2022-10-13T04:33:42.966Z,5.90
2022-10-13T04:36:45.767Z,5.40
2022-10-13T04:39:48.356Z,8.07
2022-10-13T04:42:51.775Z,6.10
2022-10-13T04:45:54.470Z,6.53
2022-10-13T04:48:57.726Z,6.00
2022-10-13T04:52:04.635Z,5.97
2022-10-13T04:55:08.995Z,6.10
2022-10-13T04:58:11.704Z,6.07
2022-10-13T05:01:21.523Z,6.30
2022-10-13T05:04:24.571Z,6.20
2022-10-13T05:07:27.462Z,7.07
2022-10-13T05:10:34.562Z,6.73
2022-10-13T05:13:37.921Z,7.55
2022-10-13T05:16:40.357Z,7.35
2022-10-13T05:19:43.183Z,7.15
2022-10-13T05:22:45.708Z,7.72
2022-10-13T05:25:48.568Z,6.90
2022-10-13T05:28:53.497Z,6.60
2022-10-13T05:31:56.455Z,6.62
2022-10-13T05:34:58.915Z,8.10
2022-10-13T05:38:01.830Z,7.57
2022-10-13T05:41:10.106Z,7.97
2022-10-13T05:44:13.067Z,8.00
2022-10-13T05:47:17.659Z,7.93
2022-10-13T05:50:20.757Z,6.70
2022-10-13T05:53:25.932Z,6.43
2022-10-13T05:56:32.789Z,6.20
2022-10-13T05:59:39.856Z,6.15
2022-10-13T06:02:49.234Z,5.82
2022-10-13T06:05:53.445Z,5.97
2022-10-13T06:08:56.192Z,6.18
2022-10-13T06:11:59.096Z,5.83
2022-10-13T06:15:01.590Z,6.78
2022-10-13T06:18:08.129Z,6.28
2022-10-13T06:21:10.680Z,6.57
2022-10-13T06:24:13.693Z,6.00
2022-10-13T06:27:16.257Z,5.87
2022-10-13T06:30:19.111Z,5.75
2022-10-13T06:33:22.196Z,6.47
2022-10-13T06:36:25.546Z,5.10
2022-10-13T06:39:28.078Z,4.78
2022-10-13T06:42:31.869Z,3.77
2022-10-13T06:45:42.754Z,3.15
2022-10-13T06:48:45.579Z,3.35
2022-10-13T06:51:48.068Z,3.72
2022-10-13T06:54:50.777Z,3.60
2022-10-13T06:57:53.288Z,4.27
2022-10-13T07:00:56.083Z,4.20
2022-10-13T07:03:58.951Z,4.47
2022-10-13T07:07:01.758Z,4.40
2022-10-13T07:10:04.554Z,4.47
2022-10-13T07:13:07.773Z,4.73
2022-10-13T07:16:11.269Z,4.30
2022-10-13T07:19:14.055Z,4.50
2022-10-13T07:22:17.150Z,4.07
2022-10-13T07:25:21.978Z,4.05
2022-10-13T07:28:25.538Z,4.40
2022-10-13T07:31:28.788Z,3.97
2022-10-13T07:34:31.351Z,3.80
2022-10-13T07:37:34.151Z,3.50
2022-10-13T07:40:38.294Z,4.32
2022-10-13T07:43:41.386Z,3.90
2022-10-13T07:46:43.850Z,4.05
2022-10-13T07:49:46.548Z,4.10
2022-10-13T07:52:49.108Z,5.93
2022-10-13T07:55:51.825Z,5.12
2022-10-13T07:58:54.397Z,5.27
2022-10-13T08:01:57.401Z,6.00
2022-10-13T08:05:00.236Z,5.55
2022-10-13T08:08:02.708Z,4.00
2022-10-13T08:11:07.416Z,5.07
2022-10-13T08:14:11.939Z,4.00
2022-10-13T08:17:14.775Z,4.15
2022-10-13T08:20:17.242Z,4.25
2022-10-13T08:23:20.028Z,4.25
2022-10-13T08:26:27.636Z,4.47
2022-10-13T08:29:30.621Z,4.67
2022-10-13T08:32:33.283Z,4.72
2022-10-13T08:35:36.179Z,4.20
2022-10-13T08:38:38.611Z,3.80
2022-10-13T08:41:46.495Z,3.90
2022-10-13T08:45:39.325Z,4.47
2022-10-13T08:48:32.767Z,4.07
2022-10-13T08:51:36.382Z,4.62
2022-10-13T08:54:39.280Z,5.22
2022-10-13T08:57:41.815Z,4.10
2022-10-13T09:00:47.345Z,4.37
2022-10-13T09:04:11.062Z,4.15
2022-10-13T09:07:23.483Z,3.70
2022-10-13T09:10:27.171Z,4.18
2022-10-13T09:13:29.990Z,3.87
2022-10-13T09:16:41.478Z,4.33
2022-10-13T09:19:58.295Z,4.18
2022-10-13T09:23:06.341Z,4.25
2022-10-13T09:26:14.158Z,3.85
2022-10-13T09:29:18.233Z,4.30
2022-10-13T09:32:23.878Z,4.10
2022-10-13T09:35:26.751Z,4.18
2022-10-13T09:38:30.126Z,4.28
2022-10-13T09:41:33.684Z,4.15
2022-10-13T09:44:36.523Z,4.75
2022-10-13T09:47:39.302Z,4.17
2022-10-13T09:50:51.848Z,4.35
2022-10-13T09:53:54.376Z,4.35
2022-10-13T09:57:04.590Z,4.00
2022-10-13T10:00:14.611Z,4.53
2022-10-13T10:03:33.801Z,4.07
2022-10-13T10:06:36.968Z,4.20
2022-10-13T10:09:42.367Z,4.93
2022-10-13T10:12:45.420Z,4.72
2022-10-13T10:16:08.156Z,4.95
2022-10-13T10:19:39.602Z,4.53
2022-10-13T10:22:48.330Z,4.55
2022-10-13T10:26:04.378Z,4.50
2022-10-13T10:29:16.281Z,4.90
2022-10-13T10:32:26.017Z,5.03
2022-10-13T10:35:58.971Z,4.80
2022-10-13T10:39:13.617Z,5.07
2022-10-13T10:42:39.309Z,5.53
2022-10-13T10:45:43.012Z,4.62
2022-10-13T10:48:47.694Z,5.03
2022-10-13T10:51:50.279Z,4.57
2022-10-13T10:54:53.011Z,4.95
2022-10-13T10:58:01.301Z,5.28
2022-10-13T11:01:19.398Z,4.90
2022-10-13T11:04:40.467Z,4.95
2022-10-13T11:07:43.151Z,4.60
2022-10-13T11:10:45.587Z,4.82
2022-10-13T11:13:56.273Z,6.53
2022-10-13T11:17:11.042Z,4.68
2022-10-13T11:20:22.723Z,4.53
2022-10-13T11:23:25.174Z,4.90
2022-10-13T11:26:28.999Z,4.40
2022-10-13T11:30:01.360Z,4.78
2022-10-13T11:33:33.464Z,4.78
2022-10-13T11:36:46.755Z,4.85
2022-10-13T11:40:04.700Z,5.20
2022-10-13T11:43:10.459Z,5.10
2022-10-13T11:47:18.256Z,5.03
2022-10-13T11:50:40.163Z,4.93
2022-10-13T11:54:04.650Z,5.60
2022-10-13T11:57:23.483Z,4.93
2022-10-13T12:00:26.472Z,4.65
2022-10-13T12:03:35.771Z,5.45
2022-10-13T12:06:40.426Z,5.20
2022-10-13T12:09:52.224Z,5.30
2022-10-13T12:12:55.748Z,6.57
2022-10-13T12:16:06.111Z,5.43
2022-10-13T12:19:24.099Z,5.85
2022-10-13T12:22:28.312Z,5.97
2022-10-13T12:25:31.254Z,6.37
2022-10-13T12:28:46.173Z,6.97
2022-10-13T12:31:50.250Z,6.40
2022-10-13T12:34:53.110Z,7.12
2022-10-13T12:37:57.624Z,6.40
2022-10-13T12:41:00.427Z,6.15
2022-10-13T12:44:06.704Z,6.10
2022-10-13T12:47:30.124Z,6.00
2022-10-13T12:50:37.090Z,6.18
2022-10-13T12:53:39.988Z,6.32
2022-10-13T12:56:42.918Z,6.32
2022-10-13T12:59:45.780Z,6.20
2022-10-13T13:02:53.524Z,6.32
2022-10-13T13:06:14.811Z,6.62
2022-10-13T13:09:23.826Z,6.30
2022-10-13T13:12:28.509Z,6.87
2022-10-13T13:15:35.103Z,6.13
2022-10-13T13:18:41.710Z,6.50
2022-10-13T13:21:44.242Z,6.70
2022-10-13T13:24:47.279Z,6.40
2022-10-13T13:27:50.476Z,6.70
2022-10-13T13:30:53.704Z,6.40
2022-10-13T13:33:56.599Z,6.82
2022-10-13T13:37:01.388Z,7.05
2022-10-13T13:40:05.136Z,6.85
2022-10-13T13:43:08.608Z,7.20
2022-10-13T13:46:22.722Z,6.67
2022-10-13T13:49:25.626Z,7.05
2022-10-13T13:52:28.163Z,7.18
2022-10-13T13:55:31.047Z,6.72
2022-10-13T13:58:33.520Z,6.60
2022-10-13T14:01:36.950Z,7.00
2022-10-13T14:04:39.773Z,7.00
2022-10-13T14:07:42.266Z,7.28
2022-10-13T14:10:45.069Z,7.30
2022-10-13T14:13:47.612Z,6.78
2022-10-13T14:16:51.750Z,7.50
2022-10-13T14:19:54.602Z,7.68
2022-10-13T14:22:57.380Z,8.13
2022-10-13T14:25:59.801Z,7.85
2022-10-13T14:29:04.631Z,6.90
2022-10-13T14:32:07.327Z,7.43
2022-10-13T14:35:10.504Z,7.15
2022-10-13T14:38:14.092Z,7.55
2022-10-13T14:41:17.562Z,7.40
2022-10-13T14:44:21.209Z,7.72
2022-10-13T14:47:24.157Z,7.97
2022-10-13T14:50:26.793Z,8.25
2022-10-13T14:53:36.024Z,8.65
2022-10-13T14:56:38.656Z,7.90
2022-10-13T14:59:42.997Z,8.50
2022-10-13T15:02:46.585Z,7.33
2022-10-13T15:05:49.842Z,7.68
2022-10-13T15:08:53.813Z,7.78
2022-10-13T15:11:58.792Z,7.65
2022-10-13T15:15:01.239Z,8.50
2022-10-13T15:18:04.155Z,7.87
2022-10-13T15:21:06.986Z,7.87
2022-10-13T15:24:11.842Z,7.60
2022-10-13T15:27:17.814Z,8.00
2022-10-13T15:30:20.696Z,8.00
2022-10-13T15:33:23.179Z,7.70
2022-10-13T15:36:26.346Z,8.18
2022-10-13T15:39:28.806Z,8.15
2022-10-13T15:42:31.640Z,8.23
2022-10-13T15:45:34.407Z,8.60
2022-10-13T15:48:37.327Z,9.23
2022-10-13T15:51:39.840Z,8.88
2022-10-13T15:54:42.653Z,9.38
2022-10-13T15:57:45.552Z,10.35
2022-10-13T16:00:49.459Z,10.25
2022-10-13T16:03:55.501Z,9.57
2022-10-13T16:06:57.984Z,10.30
2022-10-13T16:10:01.250Z,10.10
2022-10-13T16:13:03.778Z,9.55
2022-10-13T16:16:08.008Z,8.90
2022-10-13T16:19:10.592Z,8.13
2022-10-13T16:22:13.555Z,9.57
2022-10-13T16:25:16.236Z,8.55
2022-10-13T16:28:20.375Z,8.98
2022-10-13T16:31:22.918Z,8.38
2022-10-13T16:34:26.336Z,8.00
2022-10-13T16:37:28.901Z,8.88
2022-10-13T16:40:32.458Z,8.45
2022-10-13T16:43:35.207Z,8.52
2022-10-13T16:46:38.017Z,9.15
2022-10-13T16:49:40.580Z,9.60
2022-10-13T16:52:43.600Z,8.65
2022-10-13T16:55:46.217Z,8.75
2022-10-13T16:58:51.073Z,9.20
2022-10-13T17:01:53.808Z,8.65
2022-10-13T17:04:56.685Z,9.43
2022-10-13T17:07:59.353Z,9.68
2022-10-13T17:11:04.769Z,10.25
2022-10-13T17:14:07.342Z,11.63
2022-10-13T17:17:10.079Z,11.88
2022-10-13T17:20:13.278Z,11.27
2022-10-13T17:23:17.167Z,10.43
2022-10-13T17:26:21.073Z,10.25
2022-10-13T17:29:23.806Z,10.13
2022-10-13T17:32:29.042Z,10.80
2022-10-13T17:35:31.836Z,11.43
2022-10-13T17:38:34.977Z,10.52
2022-10-13T17:41:39.453Z,10.85
2022-10-13T17:44:43.150Z,11.57
2022-10-13T17:47:50.631Z,10.15
2022-10-13T17:50:53.171Z,10.73
2022-10-13T17:53:58.560Z,9.90
2022-10-13T17:57:01.383Z,9.85
2022-10-13T18:00:05.551Z,10.80
2022-10-13T18:03:14.712Z,10.65
2022-10-13T18:06:18.040Z,10.53
2022-10-13T18:09:24.180Z,14.02
2022-10-13T18:12:26.964Z,16.58
2022-10-13T18:15:29.450Z,9.60
2022-10-13T18:18:32.582Z,12.02
2022-10-13T18:21:35.198Z,11.63
2022-10-13T18:24:38.023Z,11.65
2022-10-13T18:27:40.505Z,11.80
2022-10-13T18:30:44.588Z,12.40
2022-10-13T18:33:47.686Z,10.63
2022-10-13T18:36:54.870Z,11.63
2022-10-13T18:39:57.437Z,11.80
2022-10-13T18:43:00.262Z,11.57
2022-10-13T18:46:05.692Z,11.50
2022-10-13T18:49:13.090Z,12.00
2022-10-13T18:52:18.298Z,12.10
2022-10-13T18:55:21.222Z,11.55
2022-10-13T18:58:25.902Z,11.52
2022-10-13T19:01:32.335Z,10.68
2022-10-13T19:04:35.831Z,10.55
2022-10-13T19:07:39.256Z,10.83
2022-10-13T19:10:42.394Z,10.88
2022-10-13T19:13:45.684Z,9.68
2022-10-13T19:16:48.366Z,11.23
2022-10-13T19:19:51.444Z,10.30
2022-10-13T19:22:54.108Z,10.37
2022-10-13T19:25:57.063Z,11.00
2022-10-13T19:29:09.222Z,11.07
2022-10-13T19:32:12.043Z,10.07
2022-10-13T19:35:14.720Z,10.82
2022-10-13T19:38:18.435Z,10.90
2022-10-13T19:41:21.143Z,11.57
2022-10-13T19:44:25.015Z,10.88
2022-10-13T19:47:28.222Z,12.15
2022-10-13T19:50:33.875Z,11.43
2022-10-13T19:53:37.251Z,12.07
2022-10-13T19:56:40.038Z,11.48
2022-10-13T19:59:47.554Z,11.10
2022-10-13T20:02:51.346Z,11.93
2022-10-13T20:05:54.246Z,11.55
2022-10-13T20:08:58.698Z,11.33
2022-10-13T20:12:03.471Z,12.73
2022-10-13T20:15:08.126Z,12.43
2022-10-13T20:18:13.148Z,13.00
2022-10-13T20:21:17.819Z,12.75
2022-10-13T20:24:23.033Z,12.10
2022-10-13T20:27:28.232Z,12.65
2022-10-13T20:30:31.083Z,10.52
2022-10-13T20:33:34.014Z,12.65
2022-10-13T20:36:39.045Z,11.07
2022-10-13T20:39:41.989Z,11.67
2022-10-13T20:42:49.917Z,11.20
2022-10-13T20:46:02.131Z,11.60
2022-10-13T20:49:11.096Z,12.93
2022-10-13T20:52:14.768Z,12.37
2022-10-13T20:55:17.944Z,11.07
2022-10-13T20:58:20.475Z,12.37
2022-10-13T21:01:23.721Z,12.73
2022-10-13T21:04:26.488Z,12.40
2022-10-13T21:07:29.699Z,11.93
2022-10-13T21:10:36.580Z,12.23
2022-10-13T21:13:41.016Z,12.10
2022-10-13T21:16:43.491Z,13.00
2022-10-13T21:19:46.872Z,12.43
2022-10-13T21:22:50.027Z,13.32
2022-10-13T21:25:52.820Z,12.57
2022-10-13T21:28:56.153Z,12.18
2022-10-13T21:31:59.071Z,13.02
2022-10-13T21:35:01.729Z,12.70
2022-10-13T21:38:04.781Z,13.05
2022-10-13T21:41:09.578Z,13.87
2022-10-13T21:44:14.184Z,13.88
2022-10-13T21:47:17.097Z,14.45
2022-10-13T21:50:20.050Z,14.05
2022-10-13T21:53:23.190Z,14.98
2022-10-13T21:56:27.391Z,13.63
2022-10-13T21:59:29.860Z,13.77
2022-10-13T22:02:32.718Z,14.77
2022-10-13T22:05:35.891Z,14.38
2022-10-13T22:08:40.515Z,13.98
2022-10-13T22:11:44.967Z,14.83
2022-10-13T22:14:47.477Z,14.32
2022-10-13T22:17:53.907Z,14.18
2022-10-13T22:21:06.018Z,14.25
2022-10-13T22:24:12.504Z,15.23
2022-10-13T22:27:15.246Z,13.80
2022-10-13T22:30:18.437Z,14.55
2022-10-13T22:33:21.346Z,13.88
2022-10-13T22:36:30.918Z,14.87
2022-10-13T22:39:33.642Z,15.05
2022-10-13T22:42:43.604Z,14.53
2022-10-13T22:45:52.612Z,15.35
2022-10-13T22:48:56.396Z,15.35
2022-10-13T22:51:59.206Z,15.15
2022-10-13T22:55:02.106Z,14.98
2022-10-13T22:58:05.889Z,15.63
2022-10-13T23:01:11.935Z,15.10
2022-10-13T23:04:14.483Z,16.42
2022-10-13T23:07:17.381Z,14.95
2022-10-13T23:10:21.265Z,15.57
2022-10-13T23:13:24.656Z,15.27
2022-10-13T23:16:30.058Z,15.35
2022-10-13T23:19:32.829Z,16.10
2022-10-13T23:22:35.307Z,14.75
2022-10-13T23:25:38.160Z,15.05
2022-10-13T23:28:41.318Z,16.83
2022-10-13T23:31:44.108Z,16.58
2022-10-13T23:34:46.626Z,16.05
2022-10-13T23:37:52.714Z,16.92
2022-10-13T23:40:55.580Z,16.12
2022-10-13T23:43:58.840Z,16.30
2022-10-13T23:47:01.445Z,17.45
2022-10-13T23:50:04.844Z,17.45
2022-10-13T23:53:07.959Z,16.65
2022-10-13T23:56:11.902Z,16.00
2022-10-13T23:59:14.511Z,17.93
